sensor_id;sensor_type;location;lat;lon;timestamp;P1;durP1;ratioP1;P2;durP2;ratioP2
72791;SDS011;60907;53.268;8.764;2024-02-23T00:01:35;0.10;;;0.00;;
72791;SDS011;60907;53.268;8.764;2024-02-23T00:04:00;0.30;;;0.20;;
72791;SDS011;60907;53.268;8.764;2024-02-23T00:06:27;0.22;;;0.10;;
72791;SDS011;60907;53.268;8.764;2024-02-23T00:08:53;0.53;;;0.10;;
72791;SDS011;60907;53.268;8.764;2024-02-23T00:11:19;0.10;;;0.10;;
72791;SDS011;60907;53.268;8.764;2024-02-23T00:13:45;0.20;;;0.10;;
72791;SDS011;60907;53.268;8.764;2024-02-23T00:16:10;0.20;;;0.10;;
72791;SDS011;60907;53.268;8.764;2024-02-23T00:18:36;0.55;;;0.20;;
72791;SDS011;60907;53.268;8.764;2024-02-23T00:21:01;0.10;;;0.00;;
72791;SDS011;60907;53.268;8.764;2024-02-23T00:23:26;0.30;;;0.00;;
72791;SDS011;60907;53.268;8.764;2024-02-23T00:25:53;0.35;;;0.10;;
72791;SDS011;60907;53.268;8.764;2024-02-23T00:28:18;0.27;;;0.07;;
72791;SDS011;60907;53.268;8.764;2024-02-23T00:30:44;0.40;;;0.30;;
72791;SDS011;60907;53.268;8.764;2024-02-23T00:33:09;0.10;;;0.10;;
72791;SDS011;60907;53.268;8.764;2024-02-23T00:35:35;0.10;;;0.00;;
72791;SDS011;60907;53.268;8.764;2024-02-23T00:38:00;0.30;;;0.10;;
72791;SDS011;60907;53.268;8.764;2024-02-23T00:40:25;0.30;;;0.00;;
72791;SDS011;60907;53.268;8.764;2024-02-23T00:42:51;0.10;;;0.00;;
72791;SDS011;60907;53.268;8.764;2024-02-23T00:45:17;0.10;;;0.10;;
72791;SDS011;60907;53.268;8.764;2024-02-23T00:47:42;0.10;;;0.10;;
72791;SDS011;60907;53.268;8.764;2024-02-23T00:50:08;0.45;;;0.20;;
72791;SDS011;60907;53.268;8.764;2024-02-23T00:52:33;0.03;;;0.03;;
72791;SDS011;60907;53.268;8.764;2024-02-23T00:54:59;1.87;;;0.00;;
72791;SDS011;60907;53.268;8.764;2024-02-23T00:57:24;0.30;;;0.10;;
72791;SDS011;60907;53.268;8.764;2024-02-23T00:59:54;0.00;;;0.00;;
72791;SDS011;60907;53.268;8.764;2024-02-23T01:02:20;0.95;;;0.00;;
72791;SDS011;60907;53.268;8.764;2024-02-23T01:04:45;0.30;;;0.00;;
72791;SDS011;60907;53.268;8.764;2024-02-23T01:07:10;0.13;;;0.00;;
72791;SDS011;60907;53.268;8.764;2024-02-23T01:09:35;1.07;;;0.17;;
72791;SDS011;60907;53.268;8.764;2024-02-23T01:12:01;0.00;;;0.00;;
72791;SDS011;60907;53.268;8.764;2024-02-23T01:14:26;0.00;;;0.00;;
72791;SDS011;60907;53.268;8.764;2024-02-23T01:16:51;0.40;;;0.10;;
72791;SDS011;60907;53.268;8.764;2024-02-23T01:19:16;0.00;;;0.00;;
72791;SDS011;60907;53.268;8.764;2024-02-23T01:21:42;0.00;;;0.00;;
72791;SDS011;60907;53.268;8.764;2024-02-23T01:24:07;0.00;;;0.00;;
72791;SDS011;60907;53.268;8.764;2024-02-23T01:26:32;0.00;;;0.00;;
72791;SDS011;60907;53.268;8.764;2024-02-23T01:28:57;0.00;;;0.00;;
72791;SDS011;60907;53.268;8.764;2024-02-23T01:31:23;3.30;;;0.10;;
72791;SDS011;60907;53.268;8.764;2024-02-23T01:33:48;0.00;;;0.00;;
72791;SDS011;60907;53.268;8.764;2024-02-23T01:36:15;0.03;;;0.00;;
72791;SDS011;60907;53.268;8.764;2024-02-23T01:38:40;0.00;;;0.00;;
72791;SDS011;60907;53.268;8.764;2024-02-23T01:41:07;0.10;;;0.10;;
72791;SDS011;60907;53.268;8.764;2024-02-23T01:43:33;0.05;;;0.00;;
72791;SDS011;60907;53.268;8.764;2024-02-23T01:45:58;1.05;;;0.00;;
72791;SDS011;60907;53.268;8.764;2024-02-23T01:48:24;0.87;;;0.00;;
72791;SDS011;60907;53.268;8.764;2024-02-23T01:50:49;0.10;;;0.00;;
72791;SDS011;60907;53.268;8.764;2024-02-23T01:53:15;0.10;;;0.10;;
72791;SDS011;60907;53.268;8.764;2024-02-23T01:55:41;0.00;;;0.00;;
72791;SDS011;60907;53.268;8.764;2024-02-23T01:58:07;0.10;;;0.10;;
72791;SDS011;60907;53.268;8.764;2024-02-23T02:00:32;0.83;;;0.00;;
72791;SDS011;60907;53.268;8.764;2024-02-23T02:02:59;0.05;;;0.00;;
72791;SDS011;60907;53.268;8.764;2024-02-23T02:05:24;0.00;;;0.00;;
72791;SDS011;60907;53.268;8.764;2024-02-23T02:07:50;0.13;;;0.00;;
72791;SDS011;60907;53.268;8.764;2024-02-23T02:10:18;0.20;;;0.03;;
72791;SDS011;60907;53.268;8.764;2024-02-23T02:12:44;0.10;;;0.00;;
72791;SDS011;60907;53.268;8.764;2024-02-23T02:15:10;0.23;;;0.10;;
72791;SDS011;60907;53.268;8.764;2024-02-23T02:17:35;0.20;;;0.10;;
72791;SDS011;60907;53.268;8.764;2024-02-23T02:20:01;0.00;;;0.00;;
72791;SDS011;60907;53.268;8.764;2024-02-23T02:22:29;0.20;;;0.00;;
72791;SDS011;60907;53.268;8.764;2024-02-23T02:24:54;0.08;;;0.05;;
72791;SDS011;60907;53.268;8.764;2024-02-23T02:27:20;1.13;;;0.10;;
72791;SDS011;60907;53.268;8.764;2024-02-23T02:29:45;0.10;;;0.00;;
72791;SDS011;60907;53.268;8.764;2024-02-23T02:32:10;0.00;;;0.00;;
72791;SDS011;60907;53.268;8.764;2024-02-23T02:34:35;0.10;;;0.00;;
72791;SDS011;60907;53.268;8.764;2024-02-23T02:37:00;0.07;;;0.00;;
72791;SDS011;60907;53.268;8.764;2024-02-23T02:39:26;0.00;;;0.00;;
72791;SDS011;60907;53.268;8.764;2024-02-23T02:41:52;0.50;;;0.10;;
72791;SDS011;60907;53.268;8.764;2024-02-23T02:44:17;0.00;;;0.00;;
72791;SDS011;60907;53.268;8.764;2024-02-23T02:46:42;1.20;;;0.10;;
72791;SDS011;60907;53.268;8.764;2024-02-23T02:49:07;0.03;;;0.00;;
72791;SDS011;60907;53.268;8.764;2024-02-23T02:51:33;0.23;;;0.10;;
72791;SDS011;60907;53.268;8.764;2024-02-23T02:53:58;0.00;;;0.00;;
72791;SDS011;60907;53.268;8.764;2024-02-23T02:56:23;0.00;;;0.00;;
72791;SDS011;60907;53.268;8.764;2024-02-23T02:58:49;0.00;;;0.00;;
72791;SDS011;60907;53.268;8.764;2024-02-23T03:01:14;0.10;;;0.10;;
72791;SDS011;60907;53.268;8.764;2024-02-23T03:03:39;0.10;;;0.00;;
72791;SDS011;60907;53.268;8.764;2024-02-23T03:06:05;0.00;;;0.00;;
72791;SDS011;60907;53.268;8.764;2024-02-23T03:08:30;0.15;;;0.10;;
72791;SDS011;60907;53.268;8.764;2024-02-23T03:10:56;0.00;;;0.00;;
72791;SDS011;60907;53.268;8.764;2024-02-23T03:13:22;0.65;;;0.13;;
72791;SDS011;60907;53.268;8.764;2024-02-23T03:15:47;0.10;;;0.03;;
72791;SDS011;60907;53.268;8.764;2024-02-23T03:18:12;0.30;;;0.00;;
72791;SDS011;60907;53.268;8.764;2024-02-23T03:20:39;0.10;;;0.10;;
72791;SDS011;60907;53.268;8.764;2024-02-23T03:23:05;0.20;;;0.03;;
72791;SDS011;60907;53.268;8.764;2024-02-23T03:25:30;1.00;;;0.10;;
72791;SDS011;60907;53.268;8.764;2024-02-23T03:27:55;0.30;;;0.30;;
72791;SDS011;60907;53.268;8.764;2024-02-23T03:30:21;0.60;;;0.13;;
72791;SDS011;60907;53.268;8.764;2024-02-23T03:32:46;4.50;;;1.70;;
72791;SDS011;60907;53.268;8.764;2024-02-23T03:35:12;1.67;;;0.60;;
72791;SDS011;60907;53.268;8.764;2024-02-23T03:37:37;0.73;;;0.35;;
72791;SDS011;60907;53.268;8.764;2024-02-23T03:40:03;0.98;;;0.30;;
72791;SDS011;60907;53.268;8.764;2024-02-23T03:42:29;0.73;;;0.35;;
72791;SDS011;60907;53.268;8.764;2024-02-23T03:44:55;1.83;;;0.60;;
72791;SDS011;60907;53.268;8.764;2024-02-23T03:47:20;2.47;;;0.63;;
72791;SDS011;60907;53.268;8.764;2024-02-23T03:49:45;2.43;;;0.40;;
72791;SDS011;60907;53.268;8.764;2024-02-23T03:52:11;3.00;;;0.70;;
72791;SDS011;60907;53.268;8.764;2024-02-23T03:54:37;1.40;;;0.20;;
72791;SDS011;60907;53.268;8.764;2024-02-23T03:57:02;1.83;;;0.50;;
72791;SDS011;60907;53.268;8.764;2024-02-23T03:59:28;2.47;;;0.90;;
72791;SDS011;60907;53.268;8.764;2024-02-23T04:01:53;5.93;;;0.80;;
72791;SDS011;60907;53.268;8.764;2024-02-23T04:04:18;1.30;;;0.73;;
72791;SDS011;60907;53.268;8.764;2024-02-23T04:06:44;2.63;;;0.80;;
72791;SDS011;60907;53.268;8.764;2024-02-23T04:09:09;2.87;;;1.27;;
72791;SDS011;60907;53.268;8.764;2024-02-23T04:11:34;2.23;;;1.10;;
72791;SDS011;60907;53.268;8.764;2024-02-23T04:14:00;1.63;;;0.73;;
72791;SDS011;60907;53.268;8.764;2024-02-23T04:16:25;5.28;;;0.98;;
72791;SDS011;60907;53.268;8.764;2024-02-23T04:18:51;3.08;;;0.98;;
72791;SDS011;60907;53.268;8.764;2024-02-23T04:21:16;2.47;;;1.27;;
72791;SDS011;60907;53.268;8.764;2024-02-23T04:23:43;3.17;;;1.13;;
72791;SDS011;60907;53.268;8.764;2024-02-23T04:26:08;3.45;;;1.25;;
72791;SDS011;60907;53.268;8.764;2024-02-23T04:28:34;1.53;;;0.90;;
72791;SDS011;60907;53.268;8.764;2024-02-23T04:30:59;1.85;;;0.90;;
72791;SDS011;60907;53.268;8.764;2024-02-23T04:33:25;4.38;;;1.08;;
72791;SDS011;60907;53.268;8.764;2024-02-23T04:35:50;2.47;;;1.10;;
72791;SDS011;60907;53.268;8.764;2024-02-23T04:38:15;1.33;;;0.80;;
72791;SDS011;60907;53.268;8.764;2024-02-23T04:40:41;1.83;;;0.90;;
72791;SDS011;60907;53.268;8.764;2024-02-23T04:43:06;1.77;;;0.80;;
72791;SDS011;60907;53.268;8.764;2024-02-23T04:45:31;3.33;;;0.90;;
72791;SDS011;60907;53.268;8.764;2024-02-23T04:47:56;0.67;;;0.27;;
72791;SDS011;60907;53.268;8.764;2024-02-23T04:50:21;1.67;;;0.43;;
72791;SDS011;60907;53.268;8.764;2024-02-23T04:52:48;2.63;;;0.40;;
72791;SDS011;60907;53.268;8.764;2024-02-23T04:55:13;2.40;;;0.53;;
72791;SDS011;60907;53.268;8.764;2024-02-23T04:57:38;0.53;;;0.40;;
72791;SDS011;60907;53.268;8.764;2024-02-23T05:00:05;0.40;;;0.22;;
72791;SDS011;60907;53.268;8.764;2024-02-23T05:02:32;3.22;;;0.40;;
72791;SDS011;60907;53.268;8.764;2024-02-23T05:05:00;3.90;;;0.40;;
72791;SDS011;60907;53.268;8.764;2024-02-23T05:07:25;1.27;;;0.38;;
72791;SDS011;60907;53.268;8.764;2024-02-23T05:09:51;1.07;;;0.20;;
72791;SDS011;60907;53.268;8.764;2024-02-23T05:12:16;0.33;;;0.30;;
72791;SDS011;60907;53.268;8.764;2024-02-23T05:14:41;0.37;;;0.10;;
72791;SDS011;60907;53.268;8.764;2024-02-23T05:17:06;1.73;;;0.30;;
72791;SDS011;60907;53.268;8.764;2024-02-23T05:19:31;0.90;;;0.40;;
72791;SDS011;60907;53.268;8.764;2024-02-23T05:21:57;0.60;;;0.32;;
72791;SDS011;60907;53.268;8.764;2024-02-23T05:24:22;1.93;;;0.43;;
72791;SDS011;60907;53.268;8.764;2024-02-23T05:26:47;2.33;;;0.60;;
72791;SDS011;60907;53.268;8.764;2024-02-23T05:29:13;0.60;;;0.30;;
72791;SDS011;60907;53.268;8.764;2024-02-23T05:31:48;1.45;;;0.55;;
72791;SDS011;60907;53.268;8.764;2024-02-23T05:34:14;0.95;;;0.52;;
72791;SDS011;60907;53.268;8.764;2024-02-23T05:36:39;1.90;;;0.60;;
72791;SDS011;60907;53.268;8.764;2024-02-23T05:39:04;1.35;;;0.47;;
72791;SDS011;60907;53.268;8.764;2024-02-23T05:43:57;1.25;;;0.50;;
72791;SDS011;60907;53.268;8.764;2024-02-23T05:46:22;2.17;;;0.70;;
72791;SDS011;60907;53.268;8.764;2024-02-23T05:48:47;4.57;;;1.00;;
72791;SDS011;60907;53.268;8.764;2024-02-23T05:51:13;2.33;;;1.03;;
72791;SDS011;60907;53.268;8.764;2024-02-23T05:53:38;4.20;;;1.33;;
72791;SDS011;60907;53.268;8.764;2024-02-23T05:56:03;1.73;;;1.07;;
72791;SDS011;60907;53.268;8.764;2024-02-23T05:58:29;1.27;;;0.70;;
72791;SDS011;60907;53.268;8.764;2024-02-23T06:00:54;3.20;;;1.07;;
72791;SDS011;60907;53.268;8.764;2024-02-23T06:03:19;1.80;;;0.70;;
72791;SDS011;60907;53.268;8.764;2024-02-23T06:05:45;2.15;;;1.00;;
72791;SDS011;60907;53.268;8.764;2024-02-23T06:08:10;2.17;;;0.67;;
72791;SDS011;60907;53.268;8.764;2024-02-23T06:10:36;2.77;;;1.23;;
72791;SDS011;60907;53.268;8.764;2024-02-23T06:13:02;1.40;;;0.88;;
72791;SDS011;60907;53.268;8.764;2024-02-23T06:15:28;2.43;;;1.10;;
72791;SDS011;60907;53.268;8.764;2024-02-23T06:17:53;2.20;;;0.87;;
72791;SDS011;60907;53.268;8.764;2024-02-23T06:20:18;2.70;;;1.07;;
72791;SDS011;60907;53.268;8.764;2024-02-23T06:22:44;2.85;;;0.90;;
72791;SDS011;60907;53.268;8.764;2024-02-23T06:25:10;1.43;;;1.03;;
72791;SDS011;60907;53.268;8.764;2024-02-23T06:27:36;1.27;;;0.50;;
72791;SDS011;60907;53.268;8.764;2024-02-23T06:30:02;2.87;;;0.93;;
72791;SDS011;60907;53.268;8.764;2024-02-23T06:32:27;1.97;;;1.10;;
72791;SDS011;60907;53.268;8.764;2024-02-23T06:34:52;2.58;;;0.75;;
72791;SDS011;60907;53.268;8.764;2024-02-23T06:37:18;2.83;;;1.13;;
72791;SDS011;60907;53.268;8.764;2024-02-23T06:39:43;1.93;;;0.77;;
72791;SDS011;60907;53.268;8.764;2024-02-23T06:42:09;2.65;;;0.80;;
72791;SDS011;60907;53.268;8.764;2024-02-23T06:44:35;3.42;;;1.25;;
72791;SDS011;60907;53.268;8.764;2024-02-23T06:47:00;3.23;;;1.07;;
72791;SDS011;60907;53.268;8.764;2024-02-23T06:49:25;2.90;;;1.43;;
72791;SDS011;60907;53.268;8.764;2024-02-23T06:51:51;3.10;;;1.13;;
72791;SDS011;60907;53.268;8.764;2024-02-23T06:54:16;1.97;;;1.43;;
72791;SDS011;60907;53.268;8.764;2024-02-23T06:56:42;3.90;;;1.77;;
72791;SDS011;60907;53.268;8.764;2024-02-23T06:59:07;2.47;;;0.90;;
72791;SDS011;60907;53.268;8.764;2024-02-23T07:01:33;3.90;;;1.47;;
72791;SDS011;60907;53.268;8.764;2024-02-23T07:06:25;3.00;;;1.33;;
72791;SDS011;60907;53.268;8.764;2024-02-23T07:08:53;4.78;;;1.48;;
72791;SDS011;60907;53.268;8.764;2024-02-23T07:11:19;2.45;;;1.73;;
72791;SDS011;60907;53.268;8.764;2024-02-23T07:13:45;2.10;;;0.53;;
72791;SDS011;60907;53.268;8.764;2024-02-23T07:16:10;2.03;;;1.10;;
72791;SDS011;60907;53.268;8.764;2024-02-23T07:18:35;4.67;;;0.87;;
72791;SDS011;60907;53.268;8.764;2024-02-23T07:21:00;2.07;;;1.20;;
72791;SDS011;60907;53.268;8.764;2024-02-23T07:23:26;5.03;;;1.35;;
72791;SDS011;60907;53.268;8.764;2024-02-23T07:25:52;1.70;;;0.63;;
72791;SDS011;60907;53.268;8.764;2024-02-23T07:28:18;5.28;;;0.80;;
72791;SDS011;60907;53.268;8.764;2024-02-23T07:30:48;3.30;;;0.65;;
72791;SDS011;60907;53.268;8.764;2024-02-23T07:33:13;1.90;;;0.80;;
72791;SDS011;60907;53.268;8.764;2024-02-23T07:35:38;2.57;;;1.33;;
72791;SDS011;60907;53.268;8.764;2024-02-23T07:38:03;3.43;;;0.57;;
72791;SDS011;60907;53.268;8.764;2024-02-23T07:40:29;1.08;;;0.70;;
72791;SDS011;60907;53.268;8.764;2024-02-23T07:42:56;3.70;;;0.80;;
72791;SDS011;60907;53.268;8.764;2024-02-23T07:45:22;2.27;;;0.70;;
72791;SDS011;60907;53.268;8.764;2024-02-23T07:47:47;2.57;;;0.70;;
72791;SDS011;60907;53.268;8.764;2024-02-23T07:50:12;2.13;;;0.60;;
72791;SDS011;60907;53.268;8.764;2024-02-23T07:52:38;2.13;;;0.83;;
72791;SDS011;60907;53.268;8.764;2024-02-23T07:55:04;4.72;;;1.25;;
72791;SDS011;60907;53.268;8.764;2024-02-23T07:57:30;2.00;;;0.95;;
72791;SDS011;60907;53.268;8.764;2024-02-23T07:59:56;1.60;;;0.57;;
72791;SDS011;60907;53.268;8.764;2024-02-23T08:02:21;1.70;;;1.07;;
72791;SDS011;60907;53.268;8.764;2024-02-23T08:04:46;3.07;;;0.60;;
72791;SDS011;60907;53.268;8.764;2024-02-23T08:07:13;2.80;;;0.90;;
72791;SDS011;60907;53.268;8.764;2024-02-23T08:09:39;3.28;;;0.85;;
72791;SDS011;60907;53.268;8.764;2024-02-23T08:12:05;3.73;;;1.20;;
72791;SDS011;60907;53.268;8.764;2024-02-23T08:14:30;0.73;;;0.25;;
72791;SDS011;60907;53.268;8.764;2024-02-23T08:16:55;1.60;;;0.67;;
72791;SDS011;60907;53.268;8.764;2024-02-23T08:19:20;2.23;;;0.90;;
72791;SDS011;60907;53.268;8.764;2024-02-23T08:21:46;2.20;;;0.50;;
72791;SDS011;60907;53.268;8.764;2024-02-23T08:24:11;1.67;;;0.60;;
72791;SDS011;60907;53.268;8.764;2024-02-23T08:26:37;2.70;;;0.37;;
72791;SDS011;60907;53.268;8.764;2024-02-23T08:29:03;6.07;;;0.90;;
72791;SDS011;60907;53.268;8.764;2024-02-23T08:31:29;1.00;;;0.70;;
72791;SDS011;60907;53.268;8.764;2024-02-23T08:33:54;1.77;;;0.50;;
72791;SDS011;60907;53.268;8.764;2024-02-23T08:36:20;1.97;;;0.50;;
72791;SDS011;60907;53.268;8.764;2024-02-23T08:38:45;3.13;;;0.57;;
72791;SDS011;60907;53.268;8.764;2024-02-23T08:41:10;1.20;;;0.47;;
72791;SDS011;60907;53.268;8.764;2024-02-23T08:43:35;7.70;;;1.03;;
72791;SDS011;60907;53.268;8.764;2024-02-23T08:46:01;1.67;;;0.87;;
72791;SDS011;60907;53.268;8.764;2024-02-23T08:48:26;2.57;;;0.57;;
72791;SDS011;60907;53.268;8.764;2024-02-23T08:50:51;3.50;;;0.40;;
72791;SDS011;60907;53.268;8.764;2024-02-23T08:53:17;3.07;;;0.80;;
72791;SDS011;60907;53.268;8.764;2024-02-23T08:55:43;1.87;;;0.50;;
72791;SDS011;60907;53.268;8.764;2024-02-23T08:58:08;0.52;;;0.35;;
72791;SDS011;60907;53.268;8.764;2024-02-23T09:00:34;2.25;;;0.60;;
72791;SDS011;60907;53.268;8.764;2024-02-23T09:05:27;2.78;;;0.70;;
72791;SDS011;60907;53.268;8.764;2024-02-23T09:07:52;5.22;;;0.52;;
72791;SDS011;60907;53.268;8.764;2024-02-23T09:10:18;2.45;;;0.55;;
72791;SDS011;60907;53.268;8.764;2024-02-23T09:12:43;1.60;;;0.50;;
72791;SDS011;60907;53.268;8.764;2024-02-23T09:15:09;1.10;;;0.40;;
72791;SDS011;60907;53.268;8.764;2024-02-23T09:17:34;2.17;;;0.43;;
72791;SDS011;60907;53.268;8.764;2024-02-23T09:19:59;1.73;;;0.40;;
72791;SDS011;60907;53.268;8.764;2024-02-23T09:22:24;2.33;;;0.57;;
72791;SDS011;60907;53.268;8.764;2024-02-23T09:24:50;2.63;;;0.73;;
72791;SDS011;60907;53.268;8.764;2024-02-23T09:27:15;3.58;;;0.68;;
72791;SDS011;60907;53.268;8.764;2024-02-23T09:29:41;2.27;;;0.40;;
72791;SDS011;60907;53.268;8.764;2024-02-23T09:32:07;2.38;;;0.32;;
72791;SDS011;60907;53.268;8.764;2024-02-23T09:34:32;2.53;;;0.33;;
72791;SDS011;60907;53.268;8.764;2024-02-23T09:36:57;2.13;;;0.23;;
72791;SDS011;60907;53.268;8.764;2024-02-23T09:39:23;2.53;;;0.45;;
72791;SDS011;60907;53.268;8.764;2024-02-23T09:41:51;1.42;;;0.68;;
72791;SDS011;60907;53.268;8.764;2024-02-23T09:44:16;2.13;;;0.50;;
72791;SDS011;60907;53.268;8.764;2024-02-23T09:46:43;0.30;;;0.28;;
72791;SDS011;60907;53.268;8.764;2024-02-23T09:49:08;1.45;;;0.73;;
72791;SDS011;60907;53.268;8.764;2024-02-23T09:51:35;3.63;;;0.52;;
72791;SDS011;60907;53.268;8.764;2024-02-23T09:54:01;3.00;;;0.80;;
72791;SDS011;60907;53.268;8.764;2024-02-23T09:56:27;0.45;;;0.13;;
72791;SDS011;60907;53.268;8.764;2024-02-23T09:58:55;2.58;;;0.45;;
72791;SDS011;60907;53.268;8.764;2024-02-23T10:03:46;1.33;;;0.30;;
72791;SDS011;60907;53.268;8.764;2024-02-23T10:06:12;1.67;;;0.20;;
72791;SDS011;60907;53.268;8.764;2024-02-23T10:08:37;1.83;;;0.43;;
72791;SDS011;60907;53.268;8.764;2024-02-23T10:11:02;1.50;;;0.40;;
72791;SDS011;60907;53.268;8.764;2024-02-23T10:13:29;2.20;;;0.30;;
72791;SDS011;60907;53.268;8.764;2024-02-23T10:15:54;1.50;;;0.50;;
72791;SDS011;60907;53.268;8.764;2024-02-23T10:18:20;1.90;;;0.52;;
72791;SDS011;60907;53.268;8.764;2024-02-23T10:20:48;1.10;;;0.30;;
72791;SDS011;60907;53.268;8.764;2024-02-23T10:23:15;3.05;;;0.43;;
72791;SDS011;60907;53.268;8.764;2024-02-23T10:25:40;3.95;;;0.50;;
72791;SDS011;60907;53.268;8.764;2024-02-23T10:28:06;1.23;;;0.27;;
72791;SDS011;60907;53.268;8.764;2024-02-23T10:30:31;0.88;;;0.40;;
72791;SDS011;60907;53.268;8.764;2024-02-23T10:32:57;3.38;;;0.30;;
72791;SDS011;60907;53.268;8.764;2024-02-23T10:35:23;1.17;;;0.30;;
72791;SDS011;60907;53.268;8.764;2024-02-23T10:37:48;1.90;;;0.30;;
72791;SDS011;60907;53.268;8.764;2024-02-23T10:40:18;0.98;;;0.35;;
72791;SDS011;60907;53.268;8.764;2024-02-23T10:42:45;2.92;;;0.22;;
72791;SDS011;60907;53.268;8.764;2024-02-23T10:45:16;2.75;;;0.35;;
72791;SDS011;60907;53.268;8.764;2024-02-23T10:47:42;1.75;;;0.75;;
72791;SDS011;60907;53.268;8.764;2024-02-23T10:50:07;3.58;;;0.90;;
72791;SDS011;60907;53.268;8.764;2024-02-23T10:52:33;3.85;;;0.82;;
72791;SDS011;60907;53.268;8.764;2024-02-23T10:55:00;2.40;;;0.82;;
72791;SDS011;60907;53.268;8.764;2024-02-23T10:57:27;0.90;;;0.65;;
72791;SDS011;60907;53.268;8.764;2024-02-23T10:59:52;0.63;;;0.50;;
72791;SDS011;60907;53.268;8.764;2024-02-23T11:02:18;1.33;;;0.40;;
72791;SDS011;60907;53.268;8.764;2024-02-23T11:04:48;0.80;;;0.35;;
72791;SDS011;60907;53.268;8.764;2024-02-23T11:07:20;1.65;;;0.60;;
72791;SDS011;60907;53.268;8.764;2024-02-23T11:09:52;2.92;;;0.75;;
72791;SDS011;60907;53.268;8.764;2024-02-23T11:12:25;1.08;;;0.55;;
72791;SDS011;60907;53.268;8.764;2024-02-23T11:14:50;2.60;;;0.52;;
72791;SDS011;60907;53.268;8.764;2024-02-23T11:17:19;1.25;;;0.43;;
72791;SDS011;60907;53.268;8.764;2024-02-23T11:19:49;1.52;;;0.80;;
72791;SDS011;60907;53.268;8.764;2024-02-23T11:22:15;3.22;;;0.60;;
72791;SDS011;60907;53.268;8.764;2024-02-23T11:24:48;2.17;;;0.50;;
72791;SDS011;60907;53.268;8.764;2024-02-23T11:27:14;1.85;;;0.55;;
72791;SDS011;60907;53.268;8.764;2024-02-23T11:29:42;3.70;;;0.82;;
72791;SDS011;60907;53.268;8.764;2024-02-23T11:32:15;0.95;;;0.30;;
72791;SDS011;60907;53.268;8.764;2024-02-23T11:34:40;2.80;;;0.60;;
72791;SDS011;60907;53.268;8.764;2024-02-23T11:37:09;1.95;;;0.50;;
72791;SDS011;60907;53.268;8.764;2024-02-23T11:39:35;3.90;;;0.47;;
72791;SDS011;60907;53.268;8.764;2024-02-23T11:42:02;1.85;;;0.60;;
72791;SDS011;60907;53.268;8.764;2024-02-23T11:44:27;2.38;;;0.80;;
72791;SDS011;60907;53.268;8.764;2024-02-23T11:46:52;3.03;;;0.97;;
72791;SDS011;60907;53.268;8.764;2024-02-23T11:49:18;1.80;;;0.70;;
72791;SDS011;60907;53.268;8.764;2024-02-23T11:51:43;0.40;;;0.30;;
72791;SDS011;60907;53.268;8.764;2024-02-23T11:54:09;0.98;;;0.38;;
72791;SDS011;60907;53.268;8.764;2024-02-23T11:56:35;2.53;;;0.85;;
72791;SDS011;60907;53.268;8.764;2024-02-23T11:59:00;1.83;;;0.50;;
72791;SDS011;60907;53.268;8.764;2024-02-23T12:01:28;3.60;;;0.90;;
72791;SDS011;60907;53.268;8.764;2024-02-23T12:03:53;2.13;;;0.40;;
72791;SDS011;60907;53.268;8.764;2024-02-23T12:06:19;1.35;;;0.22;;
72791;SDS011;60907;53.268;8.764;2024-02-23T12:08:45;1.10;;;0.40;;
72791;SDS011;60907;53.268;8.764;2024-02-23T12:11:11;4.50;;;1.02;;
72791;SDS011;60907;53.268;8.764;2024-02-23T12:13:38;2.40;;;0.60;;
72791;SDS011;60907;53.268;8.764;2024-02-23T12:16:04;1.77;;;0.40;;
72791;SDS011;60907;53.268;8.764;2024-02-23T12:18:35;1.95;;;0.65;;
72791;SDS011;60907;53.268;8.764;2024-02-23T12:21:01;1.35;;;0.80;;
72791;SDS011;60907;53.268;8.764;2024-02-23T12:23:27;2.20;;;0.90;;
72791;SDS011;60907;53.268;8.764;2024-02-23T12:25:58;1.70;;;0.80;;
72791;SDS011;60907;53.268;8.764;2024-02-23T12:28:24;1.15;;;0.65;;
72791;SDS011;60907;53.268;8.764;2024-02-23T12:30:59;1.53;;;0.50;;
72791;SDS011;60907;53.268;8.764;2024-02-23T12:33:26;2.28;;;1.00;;
72791;SDS011;60907;53.268;8.764;2024-02-23T12:35:53;2.38;;;0.60;;
72791;SDS011;60907;53.268;8.764;2024-02-23T12:38:18;4.22;;;0.88;;
72791;SDS011;60907;53.268;8.764;2024-02-23T12:40:44;2.70;;;1.10;;
72791;SDS011;60907;53.268;8.764;2024-02-23T12:43:09;0.70;;;0.50;;
72791;SDS011;60907;53.268;8.764;2024-02-23T12:45:34;0.90;;;0.60;;
72791;SDS011;60907;53.268;8.764;2024-02-23T12:48:00;0.83;;;0.40;;
72791;SDS011;60907;53.268;8.764;2024-02-23T12:50:25;3.55;;;0.65;;
72791;SDS011;60907;53.268;8.764;2024-02-23T12:52:50;4.43;;;0.60;;
72791;SDS011;60907;53.268;8.764;2024-02-23T12:55:17;3.13;;;0.57;;
72791;SDS011;60907;53.268;8.764;2024-02-23T12:57:42;0.73;;;0.40;;
72791;SDS011;60907;53.268;8.764;2024-02-23T13:00:07;2.30;;;0.63;;
72791;SDS011;60907;53.268;8.764;2024-02-23T13:02:33;1.15;;;0.70;;
72791;SDS011;60907;53.268;8.764;2024-02-23T13:04:59;5.90;;;1.57;;
72791;SDS011;60907;53.268;8.764;2024-02-23T13:07:24;3.67;;;0.63;;
72791;SDS011;60907;53.268;8.764;2024-02-23T13:09:49;3.15;;;0.82;;
72791;SDS011;60907;53.268;8.764;2024-02-23T13:12:15;3.33;;;0.40;;
72791;SDS011;60907;53.268;8.764;2024-02-23T13:14:40;3.10;;;0.70;;
72791;SDS011;60907;53.268;8.764;2024-02-23T13:17:05;1.90;;;0.53;;
72791;SDS011;60907;53.268;8.764;2024-02-23T13:19:30;1.60;;;0.60;;
72791;SDS011;60907;53.268;8.764;2024-02-23T13:21:56;0.40;;;0.30;;
72791;SDS011;60907;53.268;8.764;2024-02-23T13:24:21;0.97;;;0.20;;
72791;SDS011;60907;53.268;8.764;2024-02-23T13:26:46;0.87;;;0.67;;
72791;SDS011;60907;53.268;8.764;2024-02-23T13:29:11;0.73;;;0.30;;
72791;SDS011;60907;53.268;8.764;2024-02-23T13:31:37;0.73;;;0.50;;
72791;SDS011;60907;53.268;8.764;2024-02-23T13:34:03;0.60;;;0.30;;
72791;SDS011;60907;53.268;8.764;2024-02-23T13:36:28;1.35;;;0.50;;
72791;SDS011;60907;53.268;8.764;2024-02-23T13:38:54;1.20;;;0.57;;
72791;SDS011;60907;53.268;8.764;2024-02-23T13:41:19;2.17;;;0.43;;
72791;SDS011;60907;53.268;8.764;2024-02-23T13:43:44;1.90;;;0.53;;
72791;SDS011;60907;53.268;8.764;2024-02-23T13:46:09;0.70;;;0.35;;
72791;SDS011;60907;53.268;8.764;2024-02-23T13:48:35;1.93;;;0.40;;
72791;SDS011;60907;53.268;8.764;2024-02-23T13:51:01;2.35;;;0.50;;
72791;SDS011;60907;53.268;8.764;2024-02-23T13:55:53;1.80;;;0.52;;
72791;SDS011;60907;53.268;8.764;2024-02-23T13:58:18;2.60;;;0.60;;
72791;SDS011;60907;53.268;8.764;2024-02-23T14:00:44;0.60;;;0.43;;
72791;SDS011;60907;53.268;8.764;2024-02-23T14:03:10;2.20;;;0.50;;
72791;SDS011;60907;53.268;8.764;2024-02-23T14:05:40;1.77;;;0.40;;
72791;SDS011;60907;53.268;8.764;2024-02-23T14:08:09;2.28;;;0.52;;
72791;SDS011;60907;53.268;8.764;2024-02-23T14:10:34;1.40;;;0.30;;
72791;SDS011;60907;53.268;8.764;2024-02-23T14:13:00;2.87;;;0.47;;
72791;SDS011;60907;53.268;8.764;2024-02-23T14:15:25;2.95;;;0.52;;
72791;SDS011;60907;53.268;8.764;2024-02-23T14:17:52;2.03;;;0.35;;
72791;SDS011;60907;53.268;8.764;2024-02-23T14:20:17;1.33;;;0.30;;
72791;SDS011;60907;53.268;8.764;2024-02-23T14:22:42;2.40;;;0.47;;
72791;SDS011;60907;53.268;8.764;2024-02-23T14:25:08;0.20;;;0.20;;
72791;SDS011;60907;53.268;8.764;2024-02-23T14:27:33;0.60;;;0.60;;
72791;SDS011;60907;53.268;8.764;2024-02-23T14:29:58;3.93;;;0.70;;
72791;SDS011;60907;53.268;8.764;2024-02-23T14:32:24;5.80;;;0.70;;
72791;SDS011;60907;53.268;8.764;2024-02-23T14:34:49;1.07;;;0.53;;
72791;SDS011;60907;53.268;8.764;2024-02-23T14:37:14;1.65;;;0.43;;
72791;SDS011;60907;53.268;8.764;2024-02-23T14:39:40;0.73;;;0.53;;
72791;SDS011;60907;53.268;8.764;2024-02-23T14:42:05;1.27;;;0.40;;
72791;SDS011;60907;53.268;8.764;2024-02-23T14:44:31;3.63;;;0.45;;
72791;SDS011;60907;53.268;8.764;2024-02-23T14:46:56;4.30;;;0.20;;
72791;SDS011;60907;53.268;8.764;2024-02-23T14:49:22;1.27;;;0.20;;
72791;SDS011;60907;53.268;8.764;2024-02-23T14:51:47;2.35;;;0.30;;